Middlebury, VT

5:53 AM EST on December 25, 2014 (GMT -0500)
Morrisville Stowe State | Change Station
CLOSE
Current Station
Airport
Location: Morrisville,
Elevation: 732 ft
Nearby Weather Stations
Active Advisory: Areal Flood Watch

Elev 732 ft 44.53 °N, 72.61 °W | Updated 13 minutes ago

Rain
Rain
40 °F
Feels Like 36 °F
N
6
Wind Variable Wind from South

Today
High -- | Low -- °F
--% Chance of Precip.
Yesterday
High -- | Low -- °F
Precip. -- in
7:25 AM 4:19 PM
Waxing Crescent, 15% visible
Pressure 29.36 in
Visibility 2.0 miles
Clouds Few 2500 ft
Mostly Cloudy 3700 ft
Overcast 4600 ft
Windchill 36 °F
Dew Point 37 °F
Humidity 89%
Rainfall 0.00 in
Snow Depth Not available.
UV 0 out of 12
Pollen .10 out of 12
Air Quality Not available.
Flu Activity Not available.
SPECI KMVL 251040Z AUTO 17005KT 2SM -RA BR FEW025 BKN037 OVC046 04/03 A2936 RMK AO2 VIS 3/4V5 RAB20 P0000 T00440028 TSNO

More Conditions Fewer Conditions

Pressure 29.36 in
Visibility 2.0 miles
Clouds Few 2500 ft
Mostly Cloudy 3700 ft
Overcast 4600 ft
Windchill 36 °F
Dew Point 37 °F
Humidity 89%
Rainfall 0.00 in
Snow Depth Not available.
UV 0 out of 12
Pollen .10 out of 12
Air Quality Not available.
Flu Activity Not available.
SPECI KMVL 251040Z AUTO 17005KT 2SM -RA BR FEW025 BKN037 OVC046 04/03 A2936 RMK AO2 VIS 3/4V5 RAB20 P0000 T00440028 TSNO

More Conditions Fewer Conditions

10-Day Weather Forecast

Almanac

Astronomy

Dec. 25, 2014 Rise Set
Actual Time
Civil Twilight
Nautical Twilight
Astronomical Twilight
Moon
Length of Visible Light
Length of Day
Tomorrow will be .
, % of the Moon is Illuminated

Today's Extremes

State Highs State Lows

Community

WunderPhotos

Upload Photos

1,780,254 photos uploaded!

WunderBlogs® & News

Nearby

Air Quality

  Air Quality AQ Index Pollutant
Not available.

Snow Depth

Station Depth Elevation

Earthquake Activity

City Distance Mag. Time & Date
Minimum magnitude displayed is 2.5.

Coastal Water Temperatures

Place Temperature

Nearby Weather Stations